createdAt,value
2022-08-22T00:01:57.819Z,101784.59
2022-08-22T00:02:54.995Z,101812.13
2022-08-22T00:02:57.376Z,101805.09
2022-08-22T00:04:33.511Z,101781.13
2022-08-22T00:07:21.194Z,101778.50
2022-08-22T00:09:53.655Z,101781.13
2022-08-22T00:12:34.585Z,101775.91
2022-08-22T00:15:42.448Z,101777.69
2022-08-22T00:18:31.696Z,101783.75
2022-08-22T00:21:14.603Z,101786.38
2022-08-22T00:23:53.429Z,101776.84
2022-08-22T00:26:45.419Z,101782.06
2022-08-22T00:29:37.001Z,101776.84
2022-08-22T00:32:12.390Z,101779.47
2022-08-22T00:34:58.323Z,101780.41
2022-08-22T00:37:35.517Z,101778.63
2022-08-22T00:40:45.180Z,101782.19
2022-08-22T00:43:48.288Z,101784.81
2022-08-22T00:46:35.558Z,101789.22
2022-08-22T00:49:29.592Z,101786.63
2022-08-22T00:52:28.695Z,101786.63
2022-08-22T00:55:17.239Z,101794.47
2022-08-22T00:58:10.364Z,101798.88
2022-08-22T01:00:45.597Z,101794.47
2022-08-22T01:03:39.363Z,101786.72
2022-08-22T01:06:28.154Z,101792.78
2022-08-22T01:08:57.240Z,101790.16
2022-08-22T01:12:01.151Z,101789.34
2022-08-22T01:14:49.086Z,101792.78
2022-08-22T01:17:15.398Z,101791.97
2022-08-22T01:20:00.358Z,101797.22
2022-08-22T01:22:57.343Z,101789.47
2022-08-22T01:25:42.580Z,101794.59
2022-08-22T01:28:46.323Z,101796.34
2022-08-22T01:31:41.046Z,101789.47
2022-08-22T01:34:45.072Z,101783.38
2022-08-22T01:37:43.400Z,101798.97
2022-08-22T01:40:36.447Z,101797.31
2022-08-22T01:43:58.693Z,101797.31
2022-08-22T01:46:33.712Z,101786.84
2022-08-22T01:49:22.560Z,101789.59
2022-08-22T01:52:09.987Z,101796.47
2022-08-22T01:54:45.051Z,101800.06
2022-08-22T01:57:12.659Z,101800.06
2022-08-22T01:59:49.793Z,101793.97
2022-08-22T02:02:36.536Z,101793.84
2022-08-22T02:05:24.803Z,101786.00
2022-08-22T02:08:06.112Z,101792.19
2022-08-22T02:10:48.221Z,101791.34
2022-08-22T02:13:14.519Z,101792.31
2022-08-22T02:15:40.958Z,101782.78
2022-08-22T02:18:12.232Z,101780.03
2022-08-22T02:20:47.648Z,101781.84
2022-08-22T02:24:01.266Z,101780.97
2022-08-22T02:27:04.975Z,101773.13
2022-08-22T02:29:43.446Z,101775.72
2022-08-22T02:32:30.639Z,101774.91
2022-08-22T02:35:17.419Z,101773.13
2022-08-22T02:38:01.999Z,101779.28
2022-08-22T02:40:39.550Z,101777.53
2022-08-22T02:43:27.205Z,101775.84
2022-08-22T02:46:13.833Z,101769.66
2022-08-22T02:49:08.708Z,101772.28
2022-08-22T02:51:48.035Z,101775.84
2022-08-22T02:54:38.351Z,101775.03
2022-08-22T02:57:40.220Z,101773.22
2022-08-22T03:00:30.996Z,101771.53
2022-08-22T03:03:03.852Z,101769.78
2022-08-22T03:05:45.710Z,101765.47
2022-08-22T03:08:23.863Z,101764.66
2022-08-22T03:11:04.183Z,101767.28
2022-08-22T03:13:36.626Z,101762.84
2022-08-22T03:16:24.575Z,101764.66
2022-08-22T03:19:03.300Z,101769.91
2022-08-22T03:21:36.756Z,101765.47
2022-08-22T03:24:11.751Z,101762.84
2022-08-22T03:27:01.747Z,101757.72
2022-08-22T03:29:40.440Z,101750.69
2022-08-22T03:32:43.934Z,101754.16
2022-08-22T03:35:21.987Z,101758.56
2022-08-22T03:37:54.792Z,101749.03
2022-08-22T03:40:32.302Z,101746.44
2022-08-22T03:43:23.150Z,101747.25
2022-08-22T03:46:22.046Z,101735.09
2022-08-22T03:49:14.288Z,101730.69
2022-08-22T03:51:55.251Z,101738.56
2022-08-22T03:54:40.459Z,101745.56
2022-08-22T03:57:41.026Z,101737.81
2022-08-22T04:00:44.769Z,101747.38
2022-08-22T04:03:36.336Z,101753.44
2022-08-22T04:06:32.061Z,101749.16
2022-08-22T04:09:23.753Z,101743.91
2022-08-22T04:12:17.669Z,101750.09
2022-08-22T04:15:14.221Z,101748.31
2022-08-22T04:18:06.948Z,101745.69
2022-08-22T04:20:59.681Z,101744.84
2022-08-22T04:23:47.751Z,101743.91
2022-08-22T04:26:21.187Z,101743.06
2022-08-22T04:28:58.485Z,101750.94
2022-08-22T04:31:29.755Z,101746.66
2022-08-22T04:34:22.347Z,101754.53
2022-08-22T04:37:09.825Z,101757.97
2022-08-22T04:39:51.923Z,101757.13
2022-08-22T04:42:34.860Z,101760.59
2022-08-22T04:45:07.444Z,101758.91
2022-08-22T04:47:53.886Z,101758.09
2022-08-22T04:50:45.072Z,101756.28
2022-08-22T04:53:25.443Z,101753.66
2022-08-22T04:56:07.691Z,101762.47
2022-08-22T04:58:40.430Z,101760.81
2022-08-22T05:01:06.698Z,101765.09
2022-08-22T05:03:43.077Z,101774.63
2022-08-22T05:06:15.679Z,101767.72
2022-08-22T05:08:45.085Z,101772.94
2022-08-22T05:11:19.039Z,101772.13
2022-08-22T05:13:50.743Z,101765.94
2022-08-22T05:16:23.170Z,101773.91
2022-08-22T05:18:54.736Z,101772.13
2022-08-22T05:21:29.419Z,101766.06
2022-08-22T05:24:12.669Z,101766.06
2022-08-22T05:26:46.600Z,101762.59
2022-08-22T05:29:16.738Z,101777.38
2022-08-22T05:32:05.931Z,101778.19
2022-08-22T05:34:37.278Z,101783.44
2022-08-22T05:37:17.892Z,101787.03
2022-08-22T05:39:49.329Z,101789.75
2022-08-22T05:42:33.322Z,101797.50
2022-08-22T05:45:06.771Z,101797.50
2022-08-22T05:47:52.377Z,101803.69
2022-08-22T05:50:29.589Z,101798.44
2022-08-22T05:53:03.026Z,101795.00
2022-08-22T05:55:50.506Z,101796.78
2022-08-22T05:58:28.779Z,101799.38
2022-08-22T06:01:11.435Z,101793.22
2022-08-22T06:03:47.618Z,101795.00
2022-08-22T06:06:18.353Z,101797.50
2022-08-22T06:08:58.219Z,101802.25
2022-08-22T06:11:38.354Z,101799.56
2022-08-22T06:14:24.844Z,101811.72
2022-08-22T06:17:03.671Z,101807.94
2022-08-22T06:19:32.739Z,101801.97
2022-08-22T06:22:00.608Z,101808.16
2022-08-22T06:24:27.939Z,101813.50
2022-08-22T06:27:01.935Z,101817.19
2022-08-22T06:29:42.023Z,101818.97
2022-08-22T06:32:14.415Z,101818.97
2022-08-22T06:34:44.761Z,101818.13
2022-08-22T06:37:18.426Z,101822.66
2022-08-22T06:39:49.066Z,101818.34
2022-08-22T06:42:25.539Z,101818.47
2022-08-22T06:45:11.937Z,101818.56
2022-08-22T06:47:43.580Z,101826.44
2022-08-22T06:50:21.611Z,101827.72
2022-08-22T06:52:57.550Z,101824.47
2022-08-22T06:55:27.338Z,101827.34
2022-08-22T06:57:58.909Z,101825.97
2022-08-22T07:00:26.742Z,101840.19
2022-08-22T07:02:58.662Z,101837.59
2022-08-22T07:05:28.285Z,101826.16
2022-08-22T07:07:55.916Z,101834.84
2022-08-22T07:10:24.500Z,101830.56
2022-08-22T07:12:54.075Z,101830.56
2022-08-22T07:15:43.191Z,101828.59
2022-08-22T07:18:20.639Z,101841.47
2022-08-22T07:20:55.200Z,101826.47
2022-08-22T07:23:24.656Z,101825.44
2022-08-22T07:25:58.309Z,101821.88
2022-08-22T07:29:00.986Z,101820.94
2022-08-22T07:31:43.902Z,101817.44
2022-08-22T07:34:21.725Z,101822.81
2022-08-22T07:36:56.369Z,101819.38
2022-08-22T07:39:29.859Z,101821.00
2022-08-22T07:42:16.606Z,101814.72
2022-08-22T07:45:11.485Z,101818.19
2022-08-22T07:48:02.867Z,101820.72
2022-08-22T07:50:39.363Z,101815.47
2022-08-22T07:53:20.803Z,101811.75
2022-08-22T07:55:49.663Z,101814.28
2022-08-22T07:58:18.171Z,101807.97
2022-08-22T08:00:46.669Z,101801.81
2022-08-22T08:03:13.540Z,101796.44
2022-08-22T08:05:43.776Z,101795.50
2022-08-22T08:08:35.662Z,101798.13
2022-08-22T08:11:03.439Z,101786.69
2022-08-22T08:13:38.429Z,101783.13
2022-08-22T08:16:09.752Z,101783.94
2022-08-22T08:18:39.167Z,101772.53
2022-08-22T08:21:10.616Z,101774.31
2022-08-22T08:23:45.919Z,101776.84
2022-08-22T08:26:17.242Z,101775.97
2022-08-22T08:28:58.098Z,101773.28
2022-08-22T08:31:35.941Z,101769.69
2022-08-22T08:34:06.518Z,101773.16
2022-08-22T08:36:40.481Z,101772.19
2022-08-22T08:39:23.866Z,101770.31
2022-08-22T08:42:10.708Z,101772.81
2022-08-22T08:45:12.580Z,101779.81
2022-08-22T08:48:15.908Z,101764.84
2022-08-22T08:51:04.212Z,101770.09
2022-08-22T08:53:49.414Z,101774.25
2022-08-22T08:56:47.137Z,101764.59
2022-08-22T08:59:31.451Z,101765.44
2022-08-22T09:02:23.742Z,101773.19
2022-08-22T09:05:17.444Z,101772.25
2022-08-22T09:08:11.723Z,101772.94
2022-08-22T09:10:54.874Z,101773.91
2022-08-22T09:13:59.907Z,101759.84
2022-08-22T09:17:04.851Z,101761.53
2022-08-22T09:20:17.974Z,101757.84
2022-08-22T09:23:11.034Z,101763.09
2022-08-22T09:25:56.805Z,101762.03
2022-08-22T09:28:39.820Z,101761.81
2022-08-22T09:31:18.715Z,101752.13
2022-08-22T09:34:25.465Z,101755.50
2022-08-22T09:37:25.798Z,101755.38
2022-08-22T09:40:19.660Z,101750.97
2022-08-22T09:43:06.914Z,101751.78
2022-08-22T09:45:48.792Z,101750.03
2022-08-22T09:48:42.508Z,101749.91
2022-08-22T09:51:33.212Z,101742.88
2022-08-22T09:54:24.882Z,101753.34
2022-08-22T09:57:06.852Z,101743.69
2022-08-22T09:59:48.713Z,101738.44
2022-08-22T10:02:36.949Z,101740.97
2022-08-22T10:05:40.437Z,101744.56
2022-08-22T10:08:32.890Z,101731.44
2022-08-22T10:11:26.719Z,101732.16
2022-08-22T10:14:11.415Z,101735.63
2022-08-22T10:16:56.910Z,101726.78
2022-08-22T10:19:30.208Z,101719.78
2022-08-22T10:22:18.778Z,101722.28
2022-08-22T10:24:55.593Z,101716.91
2022-08-22T10:27:39.437Z,101716.06
2022-08-22T10:30:15.617Z,101716.06
2022-08-22T10:33:03.363Z,101707.25
2022-08-22T10:35:46.228Z,101708.81
2022-08-22T10:38:46.119Z,101706.19
2022-08-22T10:41:26.977Z,101708.94
2022-08-22T10:44:04.073Z,101700.13
2022-08-22T10:46:48.953Z,101704.41
2022-08-22T10:49:54.784Z,101701.88
2022-08-22T10:52:34.947Z,101690.47
2022-08-22T10:55:22.104Z,101692.97
2022-08-22T10:58:12.756Z,101697.38
2022-08-22T11:00:58.045Z,101699.03
2022-08-22T11:03:43.125Z,101698.22
2022-08-22T11:06:41.325Z,101692.97
2022-08-22T11:09:38.343Z,101695.59
2022-08-22T11:12:34.919Z,101701.78
2022-08-22T11:15:39.673Z,101693.78
2022-08-22T11:18:41.738Z,101701.53
2022-08-22T11:21:43.718Z,101697.19
2022-08-22T11:24:46.607Z,101696.28
2022-08-22T11:27:39.756Z,101689.31
2022-08-22T11:30:18.602Z,101690.13
2022-08-22T11:33:04.481Z,101688.34
2022-08-22T11:35:42.780Z,101675.31
2022-08-22T11:38:32.965Z,101686.69
2022-08-22T11:41:09.412Z,101683.94
2022-08-22T11:43:47.849Z,101679.41
2022-08-22T11:46:31.890Z,101680.34
2022-08-22T11:49:27.265Z,101680.34
2022-08-22T11:52:10.480Z,101674.16
2022-08-22T11:55:03.183Z,101682.03
2022-08-22T11:57:37.286Z,101678.69
2022-08-22T12:00:26.612Z,101675.09
2022-08-22T12:03:19.589Z,101680.25
2022-08-22T12:06:34.746Z,101674.91
2022-08-22T12:09:35.818Z,101670.34
2022-08-22T12:12:18.656Z,101672.84
2022-08-22T12:15:03.854Z,101669.16
2022-08-22T12:17:59.890Z,101670.00
2022-08-22T12:20:49.346Z,101668.22
2022-08-22T12:23:43.441Z,101666.31
2022-08-22T12:26:38.959Z,101662.75
2022-08-22T12:29:33.405Z,101666.31
2022-08-22T12:32:35.771Z,101662.00
2022-08-22T12:35:30.509Z,101658.44
2022-08-22T12:38:28.580Z,101663.44
2022-08-22T12:41:28.433Z,101664.38
2022-08-22T12:44:20.471Z,101657.50
2022-08-22T12:46:55.879Z,101659.13
2022-08-22T12:50:01.778Z,101651.38
2022-08-22T12:53:28.431Z,101654.13
2022-08-22T12:56:23.859Z,101655.00
2022-08-22T12:59:17.843Z,101650.69
2022-08-22T13:01:47.170Z,101653.44
2022-08-22T13:04:29.756Z,101642.00
2022-08-22T13:07:17.268Z,101638.63
2022-08-22T13:09:50.214Z,101633.41
2022-08-22T13:12:22.874Z,101627.31
2022-08-22T13:14:59.007Z,101629.81
2022-08-22T13:17:26.238Z,101636.75
2022-08-22T13:19:58.128Z,101632.31
2022-08-22T13:22:29.136Z,101634.94
2022-08-22T13:25:04.963Z,101628.75
2022-08-22T13:27:36.403Z,101627.78
2022-08-22T13:30:17.317Z,101636.38
2022-08-22T13:32:51.029Z,101631.03
2022-08-22T13:35:33.627Z,101630.03
2022-08-22T13:38:25.964Z,101625.66
2022-08-22T13:40:55.548Z,101615.97
2022-08-22T13:43:26.961Z,101618.59
2022-08-22T13:45:58.348Z,101611.59
2022-08-22T13:48:50.665Z,101616.09
2022-08-22T13:51:29.230Z,101615.97
2022-08-22T13:54:10.870Z,101614.22
2022-08-22T13:57:00.647Z,101606.34
2022-08-22T13:59:51.811Z,101609.78
2022-08-22T14:02:25.067Z,101607.28
2022-08-22T14:05:04.355Z,101601.19
2022-08-22T14:07:37.207Z,101600.25
2022-08-22T14:10:14.637Z,101604.66
2022-08-22T14:13:06.131Z,101605.50
2022-08-22T14:15:45.890Z,101603.59
2022-08-22T14:18:30.595Z,101601.78
2022-08-22T14:21:16.871Z,101592.25
2022-08-22T14:23:44.942Z,101596.56
2022-08-22T14:26:36.616Z,101596.56
2022-08-22T14:29:17.225Z,101601.66
2022-08-22T14:32:09.433Z,101598.22
2022-08-22T14:34:39.358Z,101590.47
2022-08-22T14:37:24.732Z,101588.56
2022-08-22T14:39:56.790Z,101580.81
2022-08-22T14:42:38.536Z,101587.84
2022-08-22T14:45:19.435Z,101572.00
2022-08-22T14:48:30.513Z,101572.81
2022-08-22T14:50:56.715Z,101582.25
2022-08-22T14:53:32.623Z,101573.50
2022-08-22T14:56:05.367Z,101568.41
2022-08-22T14:58:36.656Z,101576.13
2022-08-22T15:01:11.639Z,101569.94
2022-08-22T15:03:40.613Z,101571.75
2022-08-22T15:06:16.812Z,101565.66
2022-08-22T15:08:50.509Z,101568.16
2022-08-22T15:11:22.563Z,101564.00
2022-08-22T15:14:02.928Z,101562.31
2022-08-22T15:16:34.234Z,101566.63
2022-08-22T15:19:01.888Z,101560.41
2022-08-22T15:21:32.801Z,101561.25
2022-08-22T15:24:03.627Z,101556.00
2022-08-22T15:26:33.999Z,101561.25
2022-08-22T15:29:14.375Z,101558.50
2022-08-22T15:31:46.414Z,101554.91
2022-08-22T15:34:21.581Z,101555.75
2022-08-22T15:37:26.234Z,101548.72
2022-08-22T15:40:07.532Z,101553.97
2022-08-22T15:42:48.755Z,101556.59
2022-08-22T15:45:29.539Z,101557.44
2022-08-22T15:47:56.651Z,101550.50
2022-08-22T15:50:34.741Z,101548.72
2022-08-22T15:53:21.856Z,101548.72
2022-08-22T15:56:05.086Z,101547.88
2022-08-22T15:58:37.166Z,101552.28
2022-08-22T16:01:03.531Z,101543.59
2022-08-22T16:03:33.194Z,101540.03
2022-08-22T16:06:05.033Z,101546.94
2022-08-22T16:08:36.617Z,101535.47
2022-08-22T16:11:02.897Z,101537.16
2022-08-22T16:13:33.523Z,101535.34
2022-08-22T16:16:02.702Z,101544.88
2022-08-22T16:18:36.854Z,101538.69
2022-08-22T16:21:17.324Z,101526.28
2022-08-22T16:23:46.503Z,101523.66
2022-08-22T16:26:18.482Z,101526.03
2022-08-22T16:28:58.174Z,101521.63
2022-08-22T16:31:33.708Z,101516.38
2022-08-22T16:34:22.986Z,101516.25
2022-08-22T16:37:11.361Z,101520.41
2022-08-22T16:39:40.905Z,101519.56
2022-08-22T16:42:13.210Z,101520.25
2022-08-22T16:45:08.596Z,101518.63
2022-08-22T16:47:38.723Z,101515.16
2022-08-22T16:50:23.774Z,101504.78
2022-08-22T16:52:52.462Z,101507.28
2022-08-22T16:55:30.629Z,101511.69
2022-08-22T16:58:44.728Z,101512.53
2022-08-22T17:01:29.578Z,101508.00
2022-08-22T17:04:12.856Z,101513.13
2022-08-22T17:07:06.487Z,101508.56
2022-08-22T17:09:59.057Z,101506.78
2022-08-22T17:12:59.051Z,101507.63
2022-08-22T17:15:43.683Z,101502.50
2022-08-22T17:18:41.047Z,101506.94
2022-08-22T17:21:12.403Z,101503.44
2022-08-22T17:23:57.097Z,101505.25
2022-08-22T17:26:40.740Z,101506.19
2022-08-22T17:29:24.595Z,101498.31
2022-08-22T17:32:15.313Z,101506.19
2022-08-22T17:34:59.591Z,101504.53
2022-08-22T17:37:48.904Z,101507.16
2022-08-22T17:40:37.705Z,101514.06
2022-08-22T17:43:18.553Z,101510.63
2022-08-22T17:46:19.526Z,101511.56
2022-08-22T17:48:51.350Z,101512.66
2022-08-22T17:51:27.890Z,101518.75
2022-08-22T17:54:28.272Z,101515.28
2022-08-22T17:57:05.686Z,101519.44
2022-08-22T17:59:39.651Z,101517.63
2022-08-22T18:02:16.241Z,101513.38
2022-08-22T18:04:58.072Z,101520.41
2022-08-22T18:07:36.151Z,101514.44
2022-08-22T18:10:14.587Z,101527.44
2022-08-22T18:13:07.393Z,101529.38
2022-08-22T18:15:49.383Z,101531.13
2022-08-22T18:18:38.894Z,101528.63
2022-08-22T18:21:24.512Z,101520.06
2022-08-22T18:23:57.211Z,101521.03
2022-08-22T18:26:36.275Z,101516.72
2022-08-22T18:29:12.068Z,101524.59
2022-08-22T18:32:06.888Z,101529.72
2022-08-22T18:34:44.518Z,101533.44
2022-08-22T18:38:02.372Z,101530.81
2022-08-22T18:41:08.029Z,101534.41
2022-08-22T18:43:41.774Z,101532.72
2022-08-22T18:46:28.627Z,101536.06
2022-08-22T18:49:14.506Z,101544.75
2022-08-22T18:51:41.856Z,101539.50
2022-08-22T18:54:08.141Z,101545.59
2022-08-22T18:56:45.583Z,101548.34
2022-08-22T18:59:24.813Z,101545.72
2022-08-22T19:02:16.063Z,101551.94
2022-08-22T19:04:56.332Z,101563.00
2022-08-22T19:07:42.268Z,101566.56
2022-08-22T19:10:48.313Z,101571.00
2022-08-22T19:13:31.479Z,101571.94
2022-08-22T19:16:07.345Z,101577.19
2022-08-22T19:18:54.251Z,101576.50
2022-08-22T19:21:51.311Z,101575.66
2022-08-22T19:24:20.409Z,101583.53
2022-08-22T19:26:51.270Z,101581.88
2022-08-22T19:29:17.547Z,101592.47
2022-08-22T19:31:54.913Z,101584.75
2022-08-22T19:34:33.696Z,101589.13
2022-08-22T19:37:33.066Z,101587.47
2022-08-22T19:40:11.687Z,101588.31
2022-08-22T19:42:41.326Z,101581.50
2022-08-22T19:45:21.696Z,101584.25
2022-08-22T19:48:22.756Z,101584.38
2022-08-22T19:51:20.639Z,101578.31
2022-08-22T19:53:55.983Z,101579.25
2022-08-22T19:56:26.438Z,101576.88
2022-08-22T19:59:05.547Z,101578.81
2022-08-22T20:01:48.598Z,101575.22
2022-08-22T20:04:53.722Z,101581.44
2022-08-22T20:07:52.857Z,101576.44
2022-08-22T20:10:53.109Z,101576.53
2022-08-22T20:13:23.747Z,101584.38
2022-08-22T20:16:03.660Z,101578.19
2022-08-22T20:19:06.356Z,101575.34
2022-08-22T20:22:00.541Z,101589.28
2022-08-22T20:24:46.542Z,101587.50
2022-08-22T20:27:45.638Z,101584.06
2022-08-22T20:30:13.872Z,101580.81
2022-08-22T20:32:50.440Z,101574.88
2022-08-22T20:35:50.338Z,101577.63
2022-08-22T20:38:20.613Z,101573.44
2022-08-22T20:41:11.762Z,101570.13
2022-08-22T20:43:44.568Z,101571.66
2022-08-22T20:46:34.503Z,101563.53
2022-08-22T20:49:02.564Z,101563.31
2022-08-22T20:51:32.167Z,101559.72
2022-08-22T20:54:09.948Z,101565.81
2022-08-22T20:56:54.011Z,101566.63
2022-08-22T20:59:37.318Z,101564.00
2022-08-22T21:02:14.551Z,101567.34
2022-08-22T21:04:50.416Z,101564.72
2022-08-22T21:07:29.006Z,101560.44
2022-08-22T21:10:23.043Z,101564.84
2022-08-22T21:13:09.238Z,101571.06
2022-08-22T21:15:46.455Z,101571.88
2022-08-22T21:18:24.542Z,101566.63
2022-08-22T21:20:51.042Z,101565.81
2022-08-22T21:23:17.878Z,101562.34
2022-08-22T21:25:54.648Z,101567.59
2022-08-22T21:28:30.280Z,101564.13
2022-08-22T21:30:57.750Z,101561.50
2022-08-22T21:33:25.335Z,101558.06
2022-08-22T21:35:59.935Z,101562.34
2022-08-22T21:38:27.718Z,101553.66
2022-08-22T21:41:01.732Z,101561.50
2022-08-22T21:43:33.063Z,101555.44
2022-08-22T21:45:59.843Z,101561.50
2022-08-22T21:48:45.544Z,101560.69
2022-08-22T21:51:39.615Z,101551.16
2022-08-22T21:54:32.062Z,101551.97
2022-08-22T21:57:19.887Z,101549.34
2022-08-22T21:59:59.609Z,101549.47
2022-08-22T22:02:37.533Z,101556.41
2022-08-22T22:05:08.271Z,101554.72
2022-08-22T22:07:37.490Z,101553.91
2022-08-22T22:10:05.635Z,101546.03
2022-08-22T22:12:31.982Z,101558.28
2022-08-22T22:14:58.428Z,101554.72
2022-08-22T22:17:24.792Z,101548.66
2022-08-22T22:19:51.204Z,101552.09
2022-08-22T22:22:17.759Z,101554.72
2022-08-22T22:24:44.111Z,101549.47
2022-08-22T22:27:14.918Z,101544.34
2022-08-22T22:29:43.295Z,101550.53
2022-08-22T22:32:09.668Z,101550.41
2022-08-22T22:34:36.941Z,101554.03
2022-08-22T22:37:03.318Z,101552.34
2022-08-22T22:39:29.822Z,101553.16
2022-08-22T22:41:56.171Z,101560.09
2022-08-22T22:44:24.727Z,101554.13
2022-08-22T22:46:55.461Z,101549.72
2022-08-22T22:49:21.880Z,101554.13
2022-08-22T22:51:48.879Z,101559.38
2022-08-22T22:54:15.335Z,101553.28
2022-08-22T22:56:41.901Z,101558.53
2022-08-22T22:59:13.374Z,101560.34
2022-08-22T23:02:02.128Z,101556.88
2022-08-22T23:04:29.235Z,101553.28
2022-08-22T23:06:55.801Z,101557.59
2022-08-22T23:09:23.849Z,101561.16
2022-08-22T23:12:06.400Z,101558.53
2022-08-22T23:14:33.966Z,101556.88
2022-08-22T23:17:00.879Z,101557.72
2022-08-22T23:19:28.024Z,101559.50
2022-08-22T23:21:58.694Z,101563.06
2022-08-22T23:24:28.735Z,101560.44
2022-08-22T23:26:55.494Z,101552.59
2022-08-22T23:29:21.973Z,101555.22
2022-08-22T23:32:00.244Z,101549.16
2022-08-22T23:34:32.936Z,101555.22
2022-08-22T23:37:01.520Z,101559.50
2022-08-22T23:39:29.691Z,101553.53
2022-08-22T23:41:57.971Z,101553.53
2022-08-22T23:44:27.442Z,101548.28
2022-08-22T23:46:54.400Z,101549.16
2022-08-22T23:49:20.820Z,101540.41
2022-08-22T23:51:48.432Z,101535.19
2022-08-22T23:54:15.215Z,101538.66
2022-08-22T23:56:44.639Z,101536.13
2022-08-22T23:59:14.364Z,101530.88
